首页
METAR-TAF:

METAR-TAF

机场 :

基隆拿國際機場

基隆拿, 不列颠哥伦比亚, 加拿大

纬度: 49-58N, 经度: 119-23W, 海拔: 430米

当前天气观测

该预报发布于1小时和5分钟前的16:00 UTC
风速2节,风向多变
温度 17°C
湿度 72%
气压 1019 hPa
能見度: 14.5公里
天空无云

METAR: CYLW 081600Z AUTO VRB02KT 9SM CLR 17/12 A3008 RMK SLP187 DENSITY ALT 1700FT

时间: 10:05 (17:05 UTC)

预报

该预报发布于4小时和22分钟前的12:43 UTC
预报有效从08日的 13点(UTC)到 09日的 01点(UTC)
风速3节,风向多变
能見度: 10公里
散云层高于6000英尺
多云层高于10000英尺
短暂存在
从 08日的 13点(UTC)到 08日的 20点(UTC)
多云层高于6000英尺
成为
从 08日的 18点(UTC)到 08日的 20点(UTC)
风速10节,风向西北

TAF: CYLW 081243Z 0813/0901 VRB03KT P6SM SCT060 BKN100 TEMPO 0813/0820 BKN060 BECMG 0818/0820 32010KT RMK FCST BASED ON AUTO OBS. NXT FCST BY 081900Z

超过4000个机场的气象观测和天气预报(METAR&TAF报告)。

可查询的气象台以黄色和红色小点在地图上表示。

将鼠标移到小点上方,可查看气象台名称。

然后点击查看天气观测和预报。

如需切换地图:点击带黑十字的绿色按钮放大地图;点击带横线的绿色按钮缩小地图;或者点击绿色箭头查看邻近地区的地图。


METAR-TAF: